Pagrindinis puslapis
METAR-TAF:

METAR-TAF

Oro uostai :

Pattani, Tailandas

platuma: 06-47-08N, ilguma: 101-09-13E, Aukštis: 2 m

METAR: trūkstamas

Laikas: 03:17 (20:17 UTC)

Prognozė

Ataskaita buvo paskelbta 3 valandos ir 17 minutes, ne 17:00 UTC
Prognozė galioja nuo 20 metu 18 UTC su 21 metu 18 UTC
Vėjas 5 kt iš Pietų/Pietvakarių
Matomumas: 3000 m
Mažai debesys ne aukštis 2000 ft
rūkana
Tapsmas
nuo 21 metu 04 UTC su 21 metu 06 UTC
Matomumas: 7000 m
Laikinai
nuo 21 metu 07 UTC su 21 metu 13 UTC
Vėjas 10 kt nuo kintamojo kryptimis su gūsio iki 20 kt
Matomumas: 3000 m
Mažai debesys ne aukštis 1600 ft, Liūtiniai kamuoliniai debesys.
Išsisklaidę debesys ne aukštis 1800 ft
Su prošvaistėmis ne aukštis 10000 ft
perkūnija, lietus

TAF: VTSK 201700Z 2018/2118 21005KT 3000 BR FEW020 BECMG 2104/2106 7000 NSW TEMPO 2107/2113 VRB10G20KT 3000 TSRA FEW016CB SCT018 BKN100

Orai ataskaitas ir orų prognozės (METAR, TAF).

turimą stotys yra geltonos ir raudonos taškus žemėlapyje.

Perkelti pele per norėdami pamatyti stoties vardą.

Tada spustelėkite, norėdami matyti oro stebėjimo ir prognozės.

Norėdami pakeisti žemėlapį: spustelėkite ant žalios mygtukų su juodo kryžiaus žemyn,; žalią mygtuką su brūkšneliu, jei norite nutolinti; arba žalių rodyklių gretimoms žemėlapius.


METAR-TAF: